Time;durP1;ratioP1;P1;durP2;ratioP2;P2;SDS_P1;SDS_P2;PMS_P1;PMS_P2;Temp;Humidity;BMP_temperature;BMP_pressure;BME280_temperature;BME280_humidity;BME280_pressure;Samples;Min_cycle;Max_cycle;Signal;HPM_P1;HPM_P2
2022/02/24 00:00:11;;;;;;;22.00;9.93;;;0.50;99.90;;;;;;5050018;28;20389;-78
2022/02/24 00:02:37;;;;;;;14.57;6.43;;;0.50;99.90;;;;;;5051539;28;20025;-78
2022/02/24 00:05:02;;;;;;;11.73;6.23;;;0.40;99.90;;;;;;5049703;28;20183;-78
2022/02/24 00:07:28;;;;;;;12.37;5.60;;;0.30;99.90;;;;;;5051179;28;20031;-78
2022/02/24 00:09:54;;;;;;;10.87;5.30;;;0.30;99.90;;;;;;5050875;28;20111;-78
2022/02/24 00:12:19;;;;;;;9.13;5.13;;;0.20;99.90;;;;;;5051433;28;20100;-78
2022/02/24 00:14:46;;;;;;;12.80;5.87;;;0.20;99.90;;;;;;5050904;28;20482;-78
2022/02/24 00:17:12;;;;;;;10.70;5.43;;;0.10;99.90;;;;;;5050835;28;20036;-78
2022/02/24 00:19:37;;;;;;;13.07;5.07;;;0.10;99.90;;;;;;5048819;28;20025;-78
2022/02/24 00:22:03;;;;;;;12.13;5.20;;;0.10;99.90;;;;;;5050851;28;20108;-78
2022/02/24 00:24:29;;;;;;;12.73;5.00;;;0.10;99.90;;;;;;5049323;28;20029;-78
2022/02/24 00:26:55;;;;;;;12.03;5.20;;;0.10;99.90;;;;;;5049199;28;20039;-78
2022/02/24 00:29:20;;;;;;;10.43;4.93;;;0.10;99.90;;;;;;5050464;28;20027;-78
2022/02/24 00:31:46;;;;;;;15.50;5.70;;;0.10;99.90;;;;;;5050634;28;20440;-78
2022/02/24 00:34:12;;;;;;;16.63;5.60;;;0.10;99.90;;;;;;5050684;28;20021;-78
2022/02/24 00:36:38;;;;;;;16.93;5.60;;;0.10;99.90;;;;;;5050783;28;20446;-78
2022/02/24 00:39:04;;;;;;;9.37;4.73;;;0.10;99.90;;;;;;5050974;28;20101;-78
2022/02/24 00:41:29;;;;;;;11.90;4.40;;;0.10;99.90;;;;;;5049717;28;20116;-78
2022/02/24 00:43:55;;;;;;;11.60;4.90;;;0.00;99.90;;;;;;5049259;28;20035;-78
2022/02/24 00:46:21;;;;;;;9.83;4.90;;;0.00;99.90;;;;;;5040601;28;20495;-78
2022/02/24 00:48:46;;;;;;;11.73;4.70;;;0.00;99.90;;;;;;5030734;28;20380;-78
2022/02/24 00:51:12;;;;;;;9.27;3.80;;;0.00;99.90;;;;;;5030934;28;20032;-78
2022/02/24 00:53:41;;;;;;;6.47;4.10;;;0.00;99.90;;;;;;5030267;28;20356;-78
2022/02/24 00:56:07;;;;;;;7.87;4.30;;;0.00;99.90;;;;;;5041768;28;20025;-78
2022/02/24 00:58:33;;;;;;;7.93;3.80;;;0.00;99.90;;;;;;5050305;28;20021;-78
2022/02/24 01:00:58;;;;;;;7.67;4.13;;;0.00;99.90;;;;;;5049645;28;20029;-78
2022/02/24 01:03:24;;;;;;;9.73;4.10;;;-0.10;99.90;;;;;;5050083;28;20072;-78
2022/02/24 01:05:50;;;;;;;12.37;4.47;;;-0.10;99.90;;;;;;5050203;28;20033;-78
2022/02/24 01:08:15;;;;;;;10.20;4.07;;;-0.10;99.90;;;;;;5048780;28;20074;-78
2022/02/24 01:10:41;;;;;;;11.23;3.73;;;-0.10;99.90;;;;;;5048679;28;20029;-78
2022/02/24 01:13:06;;;;;;;9.57;4.10;;;-0.10;99.90;;;;;;5049325;28;20021;-78
2022/02/24 01:15:32;;;;;;;8.40;3.67;;;-0.10;99.90;;;;;;5049014;28;20565;-78
2022/02/24 01:17:58;;;;;;;6.00;3.40;;;-0.10;99.90;;;;;;5049649;28;20493;-78
2022/02/24 01:20:23;;;;;;;12.00;4.33;;;-0.10;99.90;;;;;;5048867;28;20433;-79
2022/02/24 01:22:50;;;;;;;5.33;2.90;;;-0.10;99.90;;;;;;5050326;28;20033;-79
2022/02/24 01:25:18;;;;;;;5.17;3.10;;;0.00;99.90;;;;;;5050730;28;20104;-79
2022/02/24 01:27:44;;;;;;;9.90;3.73;;;0.00;99.90;;;;;;5050619;28;20028;-79
2022/02/24 01:30:10;;;;;;;7.23;4.03;;;0.00;99.90;;;;;;5050384;28;20424;-75
2022/02/24 01:32:36;;;;;;;8.77;3.80;;;0.00;99.90;;;;;;5051498;28;20024;-74
2022/02/24 01:35:01;;;;;;;10.07;3.70;;;0.00;99.90;;;;;;5052301;28;20029;-74
2022/02/24 01:37:27;;;;;;;8.87;3.40;;;-0.10;99.90;;;;;;5052838;28;20032;-75
2022/02/24 01:39:54;;;;;;;6.90;3.80;;;-0.10;99.90;;;;;;5051571;28;20033;-74
2022/02/24 01:42:19;;;;;;;6.73;3.70;;;0.00;99.90;;;;;;5051406;28;20029;-74
2022/02/24 01:44:47;;;;;;;10.63;3.67;;;0.00;99.90;;;;;;5051755;28;20051;-74
2022/02/24 01:47:12;;;;;;;6.53;3.60;;;-0.10;99.90;;;;;;5047638;28;20135;-75
2022/02/24 01:49:39;;;;;;;6.53;3.63;;;-0.10;99.90;;;;;;5052786;28;20184;-74
2022/02/24 01:52:07;;;;;;;7.77;3.10;;;-0.10;99.90;;;;;;5051366;28;20056;-75
2022/02/24 01:54:37;;;;;;;7.47;3.30;;;-0.10;99.90;;;;;;5052641;28;20433;-74
2022/02/24 01:57:04;;;;;;;6.70;3.40;;;0.00;99.90;;;;;;5052597;28;20059;-74
2022/02/24 01:59:30;;;;;;;8.83;3.50;;;0.00;99.90;;;;;;5052694;28;20029;-75
2022/02/24 02:01:56;;;;;;;8.60;3.50;;;-0.10;99.90;;;;;;5051044;28;20028;-75
2022/02/24 02:04:23;;;;;;;7.17;3.50;;;-0.10;99.90;;;;;;5052544;28;20029;-74
2022/02/24 02:06:48;;;;;;;7.80;3.17;;;-0.10;99.90;;;;;;5052272;28;20123;-74
2022/02/24 02:09:14;;;;;;;6.63;3.33;;;-0.10;99.90;;;;;;5052170;28;20075;-74
2022/02/24 02:11:40;;;;;;;5.77;3.33;;;-0.10;99.90;;;;;;5052377;28;20068;-74
2022/02/24 02:14:11;;;;;;;5.57;3.07;;;-0.10;99.90;;;;;;5050395;28;20032;-74
2022/02/24 02:16:44;;;;;;;9.23;3.53;;;-0.10;99.90;;;;;;5051934;28;20021;-74
2022/02/24 02:19:09;;;;;;;5.97;3.50;;;-0.10;99.90;;;;;;5051905;28;20029;-74
2022/02/24 02:21:35;;;;;;;8.17;3.93;;;-0.20;99.90;;;;;;5051979;28;20128;-74
2022/02/24 02:24:01;;;;;;;6.13;3.60;;;-0.20;99.90;;;;;;5051825;28;20021;-74
2022/02/24 02:26:27;;;;;;;5.33;3.33;;;-0.20;99.90;;;;;;5051600;28;20058;-74
2022/02/24 02:28:52;;;;;;;5.13;3.00;;;-0.20;99.90;;;;;;5051625;28;20098;-74
2022/02/24 02:31:21;;;;;;;6.10;3.00;;;-0.30;99.90;;;;;;5051941;28;20029;-74
2022/02/24 02:33:46;;;;;;;5.50;3.10;;;-0.20;99.90;;;;;;5051820;28;20500;-74
2022/02/24 02:36:12;;;;;;;6.43;3.60;;;-0.20;99.90;;;;;;5051044;28;20032;-74
2022/02/24 02:38:38;;;;;;;9.17;3.70;;;-0.20;99.90;;;;;;5051897;28;20505;-75
2022/02/24 02:41:03;;;;;;;9.43;3.40;;;-0.20;99.90;;;;;;5051890;28;20056;-74
2022/02/24 02:43:29;;;;;;;6.93;3.27;;;-0.30;99.90;;;;;;5050440;28;20363;-74
2022/02/24 02:45:54;;;;;;;6.77;3.60;;;-0.30;99.90;;;;;;5042274;28;20050;-74
2022/02/24 02:48:20;;;;;;;10.77;3.57;;;-0.30;99.90;;;;;;5045751;28;20036;-74
2022/02/24 02:50:46;;;;;;;5.80;2.87;;;-0.30;99.90;;;;;;5051769;28;20460;-75
2022/02/24 02:53:11;;;;;;;7.00;3.10;;;-0.30;99.90;;;;;;5049534;28;20540;-74
2022/02/24 02:55:37;;;;;;;8.10;3.33;;;-0.30;99.90;;;;;;5051425;28;20021;-74
2022/02/24 02:58:03;;;;;;;7.03;3.70;;;-0.30;99.90;;;;;;5049736;28;20039;-74
2022/02/24 03:00:29;;;;;;;9.97;3.33;;;-0.30;99.90;;;;;;5051502;28;20029;-74
2022/02/24 03:02:55;;;;;;;9.43;3.23;;;-0.30;99.90;;;;;;5051305;28;20029;-74
2022/02/24 03:05:22;;;;;;;12.40;3.27;;;-0.30;99.90;;;;;;5051184;28;20025;-74
2022/02/24 03:07:48;;;;;;;8.30;3.33;;;-0.30;99.90;;;;;;5050914;28;20036;-74
2022/02/24 03:10:14;;;;;;;7.33;3.27;;;-0.30;99.90;;;;;;5051344;28;20051;-75
2022/02/24 03:12:39;;;;;;;5.73;3.00;;;-0.30;99.90;;;;;;5051274;28;20017;-74
2022/02/24 03:15:09;;;;;;;7.80;3.67;;;-0.30;99.90;;;;;;5049794;28;20605;-75
2022/02/24 03:17:36;;;;;;;6.83;2.90;;;-0.30;99.90;;;;;;5051000;28;20028;-74
2022/02/24 03:20:01;;;;;;;5.30;2.90;;;-0.30;99.90;;;;;;5050740;28;20044;-74
2022/02/24 03:22:27;;;;;;;5.33;2.80;;;-0.30;99.90;;;;;;5050836;28;20071;-74
2022/02/24 03:24:52;;;;;;;5.87;2.80;;;-0.30;99.90;;;;;;5049738;28;20040;-74
2022/02/24 03:27:18;;;;;;;7.00;3.10;;;-0.30;99.90;;;;;;5049304;28;20513;-75
2022/02/24 03:29:44;;;;;;;5.80;3.27;;;-0.30;99.90;;;;;;5050961;28;20441;-74
2022/02/24 03:32:10;;;;;;;8.80;3.23;;;-0.30;99.90;;;;;;5050304;28;20806;-80
2022/02/24 03:34:35;;;;;;;5.33;3.47;;;-0.30;99.90;;;;;;5049973;28;20079;-80
2022/02/24 03:37:01;;;;;;;8.63;3.23;;;-0.40;99.90;;;;;;5050362;28;20036;-80
2022/02/24 03:39:27;;;;;;;8.63;2.67;;;-0.40;99.90;;;;;;5049602;28;20032;-79
2022/02/24 03:41:53;;;;;;;7.93;2.93;;;-0.40;99.90;;;;;;5051081;28;20025;-79
2022/02/24 03:44:19;;;;;;;8.07;2.97;;;-0.40;99.90;;;;;;5050454;28;20048;-79
2022/02/24 03:46:44;;;;;;;5.00;2.90;;;-0.40;99.90;;;;;;5044810;28;20041;-79
2022/02/24 03:49:10;;;;;;;9.50;3.70;;;-0.40;99.90;;;;;;5049088;28;20021;-73
2022/02/24 03:51:35;;;;;;;6.03;3.27;;;-0.40;99.90;;;;;;5050586;28;20030;-73
2022/02/24 03:54:01;;;;;;;8.63;2.93;;;-0.40;99.90;;;;;;5047817;28;20546;-78
2022/02/24 03:56:27;;;;;;;4.53;3.23;;;-0.50;99.90;;;;;;5052399;28;20033;-77
2022/02/24 03:58:53;;;;;;;7.50;3.10;;;-0.40;99.90;;;;;;5051775;28;20489;-77
2022/02/24 04:01:19;;;;;;;3.93;2.60;;;-0.50;99.90;;;;;;5051550;28;20025;-78
2022/02/24 04:03:44;;;;;;;5.60;2.90;;;-0.50;99.90;;;;;;5051143;28;20545;-78
2022/02/24 04:06:10;;;;;;;5.37;2.70;;;-0.50;99.90;;;;;;5051356;28;20084;-78
2022/02/24 04:08:36;;;;;;;4.97;2.60;;;-0.60;99.90;;;;;;5051283;28;20580;-78
2022/02/24 04:11:02;;;;;;;6.47;2.47;;;-0.60;99.90;;;;;;5051749;28;20660;-77
2022/02/24 04:13:27;;;;;;;5.00;3.00;;;-0.60;99.90;;;;;;5051615;28;20021;-77
2022/02/24 04:15:53;;;;;;;3.67;2.50;;;-0.60;99.90;;;;;;5051793;28;20493;-77
2022/02/24 04:18:18;;;;;;;6.47;2.87;;;-0.60;99.90;;;;;;5050133;28;20036;-77
2022/02/24 04:20:45;;;;;;;6.43;3.07;;;-0.60;99.90;;;;;;5051321;28;20035;-77
2022/02/24 04:23:11;;;;;;;8.57;2.90;;;-0.60;99.90;;;;;;5051436;28;20031;-77
2022/02/24 04:25:36;;;;;;;5.87;3.03;;;-0.60;99.90;;;;;;5051612;28;20100;-77
2022/02/24 04:28:02;;;;;;;9.17;3.03;;;-0.50;99.90;;;;;;5051319;28;20055;-78
2022/02/24 04:30:28;;;;;;;5.73;2.90;;;-0.50;99.90;;;;;;5051341;28;20346;-78
2022/02/24 04:32:53;;;;;;;4.70;3.03;;;-0.50;99.90;;;;;;5051241;28;20025;-78
2022/02/24 04:35:19;;;;;;;5.43;3.03;;;-0.50;99.90;;;;;;5051490;28;20075;-78
2022/02/24 04:37:44;;;;;;;10.73;2.63;;;-0.50;99.90;;;;;;5051402;28;20128;-78
2022/02/24 04:40:10;;;;;;;4.67;3.00;;;-0.50;99.90;;;;;;5051161;28;20112;-78
2022/02/24 04:42:36;;;;;;;5.33;2.87;;;-0.50;99.90;;;;;;5051505;28;20099;-77
2022/02/24 04:45:02;;;;;;;4.80;3.30;;;-0.50;99.90;;;;;;5047001;28;20044;-78
2022/02/24 04:47:28;;;;;;;6.20;3.10;;;-0.50;99.90;;;;;;5042041;28;20366;-78
2022/02/24 04:49:54;;;;;;;10.37;2.97;;;-0.50;99.90;;;;;;5051143;28;20036;-78
2022/02/24 04:52:20;;;;;;;5.53;2.73;;;-0.50;99.90;;;;;;5049990;28;20122;-78
2022/02/24 04:54:46;;;;;;;10.10;3.07;;;-0.50;99.90;;;;;;5051240;28;20741;-78
2022/02/24 04:57:12;;;;;;;12.70;4.53;;;-0.50;99.90;;;;;;5051086;28;20477;-79
2022/02/24 04:59:38;;;;;;;9.47;4.33;;;-0.50;99.90;;;;;;5050014;28;20036;-77
2022/02/24 05:02:03;;;;;;;12.63;6.97;;;-0.50;99.90;;;;;;5049889;28;20032;-78
2022/02/24 05:04:29;;;;;;;11.77;5.53;;;-0.50;99.90;;;;;;5050182;28;20462;-78
2022/02/24 05:06:54;;;;;;;12.93;5.90;;;-0.50;99.90;;;;;;5054366;28;20070;-77
2022/02/24 05:09:20;;;;;;;10.10;5.60;;;-0.50;99.90;;;;;;5055286;28;20075;-78
2022/02/24 05:11:46;;;;;;;7.43;4.93;;;-0.50;99.90;;;;;;5054583;28;20096;-77
2022/02/24 05:14:11;;;;;;;10.23;5.87;;;-0.50;99.90;;;;;;5055013;28;20037;-77
2022/02/24 05:16:37;;;;;;;12.90;5.80;;;-0.60;99.90;;;;;;5053675;28;20039;-78
2022/02/24 05:19:02;;;;;;;10.53;6.13;;;-0.60;99.90;;;;;;5054303;28;20032;-78
2022/02/24 05:21:28;;;;;;;10.37;5.80;;;-0.60;99.90;;;;;;5054566;28;20100;-78
2022/02/24 05:23:54;;;;;;;8.47;5.87;;;-0.60;99.90;;;;;;5052857;28;20025;-78
2022/02/24 05:26:19;;;;;;;18.57;7.67;;;-0.60;99.90;;;;;;5042974;28;20037;-78
2022/02/24 05:28:45;;;;;;;13.20;6.77;;;-0.60;99.90;;;;;;5050405;28;20079;-78
2022/02/24 05:31:11;;;;;;;17.70;7.10;;;-0.60;99.90;;;;;;5048186;28;20037;-77
2022/02/24 05:33:37;;;;;;;14.73;7.80;;;-0.70;99.90;;;;;;5044144;28;20040;-77
2022/02/24 05:36:03;;;;;;;16.67;6.03;;;-0.70;99.90;;;;;;5040822;28;20025;-76
2022/02/24 05:38:29;;;;;;;11.57;6.20;;;-0.70;99.90;;;;;;5050019;28;20022;-78
2022/02/24 05:40:55;;;;;;;11.87;6.27;;;-0.70;99.90;;;;;;5042356;28;20433;-78
2022/02/24 05:43:27;;;;;;;10.90;5.57;;;-0.70;99.90;;;;;;5051746;28;20477;-77
2022/02/24 05:45:56;;;;;;;10.63;4.83;;;-0.70;99.90;;;;;;5049260;28;20119;-77
2022/02/24 05:48:26;;;;;;;6.80;4.07;;;-0.70;99.90;;;;;;5051272;28;20100;-77
2022/02/24 05:50:53;;;;;;;9.67;4.20;;;-0.70;99.90;;;;;;5046438;28;20034;-77
2022/02/24 05:53:18;;;;;;;9.93;3.90;;;-0.70;99.90;;;;;;5046263;28;20029;-78
2022/02/24 05:55:44;;;;;;;8.63;4.17;;;-0.70;99.90;;;;;;5046292;28;20025;-76
2022/02/24 05:58:09;;;;;;;12.37;3.70;;;-0.70;99.90;;;;;;5045628;28;20021;-78
2022/02/24 06:00:35;;;;;;;8.80;3.13;;;-0.70;99.90;;;;;;5041351;28;20025;-78
2022/02/24 06:03:01;;;;;;;9.00;3.17;;;-0.70;99.90;;;;;;5048788;28;20032;-79
2022/02/24 06:05:27;;;;;;;7.37;3.40;;;-0.70;99.90;;;;;;5049820;28;20124;-79
2022/02/24 06:07:52;;;;;;;7.33;3.30;;;-0.70;99.90;;;;;;5044794;28;20043;-79
2022/02/24 06:10:18;;;;;;;12.67;3.20;;;-0.70;99.90;;;;;;5050430;28;20109;-79
2022/02/24 06:12:43;;;;;;;14.30;3.63;;;-0.70;99.90;;;;;;5043875;28;20025;-79
2022/02/24 06:15:10;;;;;;;10.27;2.90;;;-0.60;99.90;;;;;;5031945;28;20028;-79
2022/02/24 06:17:36;;;;;;;13.37;3.10;;;-0.60;99.90;;;;;;5050779;28;20041;-79
2022/02/24 06:20:03;;;;;;;8.70;3.27;;;-0.50;99.90;;;;;;5049199;28;20108;-80
2022/02/24 06:22:29;;;;;;;5.40;3.00;;;-0.50;99.90;;;;;;5033369;28;20057;-72
2022/02/24 06:24:55;;;;;;;6.60;3.13;;;-0.50;99.90;;;;;;5044096;28;20080;-79
2022/02/24 06:27:20;;;;;;;4.23;2.60;;;-0.50;99.90;;;;;;5046374;28;20047;-80
2022/02/24 06:29:51;;;;;;;7.67;2.77;;;-0.40;99.90;;;;;;5049529;28;20064;-74
2022/02/24 06:32:17;;;;;;;8.47;2.90;;;-0.30;99.90;;;;;;5044351;28;20144;-79
2022/02/24 06:34:43;;;;;;;6.73;3.17;;;-0.30;99.90;;;;;;5047171;28;20100;-79
2022/02/24 06:37:09;;;;;;;14.67;2.70;;;-0.20;99.90;;;;;;5053416;28;20043;-72
2022/02/24 06:39:36;;;;;;;5.57;3.40;;;-0.20;99.90;;;;;;5052758;28;20037;-73
2022/02/24 06:42:01;;;;;;;6.43;3.20;;;-0.10;99.90;;;;;;5051858;28;20037;-78
2022/02/24 06:44:34;;;;;;;10.97;3.33;;;-0.10;99.90;;;;;;5051002;28;20452;-71
2022/02/24 06:47:00;;;;;;;6.50;3.17;;;0.00;99.90;;;;;;5050491;28;20072;-71
2022/02/24 06:49:25;;;;;;;7.27;3.50;;;0.10;99.90;;;;;;5051839;28;20030;-64
2022/02/24 06:51:53;;;;;;;5.97;3.00;;;0.20;99.90;;;;;;5052769;28;20100;-77
2022/02/24 06:54:18;;;;;;;5.20;3.10;;;0.20;99.90;;;;;;5053418;28;20043;-77
2022/02/24 06:56:44;;;;;;;6.57;2.70;;;0.30;99.90;;;;;;5053415;28;20029;-80
2022/02/24 06:59:09;;;;;;;4.23;3.00;;;0.40;99.90;;;;;;5051579;28;20362;-80
2022/02/24 07:01:35;;;;;;;8.10;3.27;;;0.50;99.90;;;;;;5051226;28;20583;-79
2022/02/24 07:04:00;;;;;;;9.73;2.77;;;0.50;99.90;;;;;;5049735;28;20048;-79
2022/02/24 07:06:26;;;;;;;3.63;2.73;;;0.70;99.90;;;;;;5050231;28;20423;-79
2022/02/24 07:08:52;;;;;;;7.50;2.70;;;0.80;99.90;;;;;;5033365;28;20026;-79
2022/02/24 07:11:18;;;;;;;5.70;2.93;;;0.90;99.90;;;;;;5037291;28;20098;-80
2022/02/24 07:13:43;;;;;;;8.97;3.20;;;1.00;99.90;;;;;;5033807;28;20060;-79
2022/02/24 07:16:09;;;;;;;5.97;3.50;;;1.10;99.90;;;;;;5034509;28;20746;-80
2022/02/24 07:18:34;;;;;;;8.07;3.63;;;1.20;99.90;;;;;;5030409;28;20549;-79
2022/02/24 07:21:00;;;;;;;6.47;3.53;;;1.30;99.90;;;;;;5037715;28;20133;-78
2022/02/24 07:23:26;;;;;;;8.97;3.10;;;1.40;99.90;;;;;;5033816;28;20021;-72
2022/02/24 07:25:56;;;;;;;4.80;2.90;;;1.60;99.90;;;;;;5048575;28;20048;-77
2022/02/24 07:28:22;;;;;;;6.90;3.00;;;1.70;99.90;;;;;;5052367;28;20503;-82
2022/02/24 07:30:48;;;;;;;6.20;2.80;;;1.80;99.90;;;;;;5046087;28;20059;-79
2022/02/24 07:33:13;;;;;;;4.80;2.30;;;2.00;99.90;;;;;;5050587;28;20052;-83
2022/02/24 07:35:39;;;;;;;4.10;2.30;;;2.10;99.90;;;;;;5051804;28;20100;-83
2022/02/24 07:38:04;;;;;;;3.80;2.70;;;2.20;99.90;;;;;;5050910;28;20785;-83
2022/02/24 07:40:30;;;;;;;4.70;2.60;;;2.30;99.90;;;;;;5049016;28;20044;-82
2022/02/24 07:42:56;;;;;;;6.70;2.63;;;2.40;99.90;;;;;;5050576;28;20044;-83
2022/02/24 07:45:21;;;;;;;4.50;2.30;;;2.60;99.90;;;;;;5049359;28;20021;-82
2022/02/24 07:47:47;;;;;;;3.87;2.30;;;2.70;99.90;;;;;;5050389;28;20068;-83
2022/02/24 07:50:14;;;;;;;5.43;2.60;;;2.80;99.90;;;;;;5050337;28;20036;-82
2022/02/24 07:52:46;;;;;;;5.43;2.30;;;2.90;99.90;;;;;;5050804;28;20078;-78
2022/02/24 07:55:13;;;;;;;6.10;1.93;;;3.00;99.90;;;;;;5051654;28;20477;-78
2022/02/24 07:57:40;;;;;;;4.97;2.20;;;3.20;99.90;;;;;;5051836;28;20063;-78
2022/02/24 08:00:07;;;;;;;5.40;2.47;;;3.30;99.90;;;;;;5050995;28;20496;-74
2022/02/24 08:02:33;;;;;;;3.97;2.17;;;3.40;99.90;;;;;;5050190;28;20021;-83
2022/02/24 08:04:59;;;;;;;6.30;2.17;;;3.50;99.90;;;;;;5050843;28;20025;-83
2022/02/24 08:07:25;;;;;;;14.77;2.63;;;3.60;99.90;;;;;;5051033;28;20033;-84
2022/02/24 08:09:50;;;;;;;6.13;2.20;;;3.70;99.90;;;;;;5050565;28;20112;-83
2022/02/24 08:15:00;;;;;;;7.40;2.33;;;3.90;99.90;;;;;;5048033;28;20048;-79
2022/02/24 08:17:25;;;;;;;10.53;3.40;;;4.10;99.90;;;;;;5049416;28;20454;-79
2022/02/24 08:19:51;;;;;;;6.70;3.43;;;4.20;99.90;;;;;;5048739;28;20096;-73
2022/02/24 08:22:17;;;;;;;8.97;3.77;;;4.30;99.90;;;;;;5043182;28;20147;-73
2022/02/24 08:24:42;;;;;;;8.63;3.00;;;4.40;99.90;;;;;;5042347;28;20829;-73
2022/02/24 08:27:08;;;;;;;5.43;3.43;;;4.50;99.90;;;;;;5046178;28;20435;-78
2022/02/24 08:29:34;;;;;;;7.70;2.70;;;4.60;99.90;;;;;;5048248;28;20037;-78
2022/02/24 08:31:59;;;;;;;18.67;2.80;;;4.70;99.90;;;;;;5045441;28;20055;-78
2022/02/24 08:34:25;;;;;;;4.73;2.40;;;4.80;99.90;;;;;;5048373;28;20025;-79
2022/02/24 08:36:51;;;;;;;5.70;2.40;;;4.90;99.90;;;;;;5048779;28;20059;-78
2022/02/24 08:39:27;;;;;;;15.63;3.10;;;5.00;99.90;;;;;;5039303;28;20725;-79
2022/02/24 08:41:54;;;;;;;6.93;2.03;;;5.10;99.90;;;;;;5049428;28;20748;-79
2022/02/24 08:44:19;;;;;;;3.50;1.90;;;5.30;99.90;;;;;;5051292;28;20041;-79
2022/02/24 08:46:45;;;;;;;3.70;2.03;;;5.40;99.90;;;;;;5048326;28;20083;-79
2022/02/24 08:49:14;;;;;;;5.40;2.23;;;5.50;99.90;;;;;;5049621;28;20530;-79
2022/02/24 08:51:40;;;;;;;3.33;1.93;;;5.70;99.90;;;;;;5051311;28;20044;-79
2022/02/24 08:54:05;;;;;;;4.73;1.97;;;5.80;99.90;;;;;;5050384;28;20064;-80
2022/02/24 08:56:31;;;;;;;6.30;2.13;;;6.00;99.90;;;;;;5051289;28;20057;-80
2022/02/24 08:58:57;;;;;;;3.73;1.90;;;6.20;99.90;;;;;;5051053;28;20037;-79
2022/02/24 09:01:22;;;;;;;4.07;1.90;;;6.40;99.90;;;;;;5050725;28;20036;-80
2022/02/24 09:03:48;;;;;;;6.70;2.20;;;6.60;99.90;;;;;;5050481;28;20040;-79
2022/02/24 09:06:16;;;;;;;6.57;2.10;;;6.70;99.90;;;;;;5051110;28;20094;-80
2022/02/24 09:08:45;;;;;;;5.10;1.80;;;6.90;99.90;;;;;;5047035;28;20089;-79
2022/02/24 09:11:11;;;;;;;4.43;1.70;;;7.00;99.90;;;;;;5048161;28;20029;-79
2022/02/24 09:13:39;;;;;;;4.53;1.80;;;7.10;99.90;;;;;;5050590;28;20363;-79
2022/02/24 09:16:05;;;;;;;5.97;1.77;;;7.20;99.90;;;;;;5051458;28;20033;-79
2022/02/24 09:18:31;;;;;;;3.30;1.90;;;7.40;99.90;;;;;;5049971;28;20036;-80
2022/02/24 09:20:56;;;;;;;6.80;1.87;;;7.80;99.90;;;;;;5048736;28;20102;-79
2022/02/24 09:23:22;;;;;;;3.80;2.03;;;7.90;99.90;;;;;;5050730;28;20033;-80
2022/02/24 09:25:47;;;;;;;2.87;1.90;;;8.00;99.90;;;;;;5051042;28;20037;-79
2022/02/24 09:28:13;;;;;;;3.17;1.80;;;8.10;99.90;;;;;;5050664;28;20139;-80
2022/02/24 09:30:44;;;;;;;7.00;1.93;;;8.30;99.90;;;;;;5048051;28;20025;-79
2022/02/24 09:33:10;;;;;;;6.17;1.80;;;8.60;99.90;;;;;;5049271;28;20103;-79
2022/02/24 09:35:36;;;;;;;4.90;1.90;;;8.80;99.90;;;;;;5050613;28;20033;-78
2022/02/24 09:38:02;;;;;;;2.87;1.60;;;8.90;99.90;;;;;;5053676;28;20044;-77
2022/02/24 09:40:31;;;;;;;3.60;1.75;;;9.40;99.90;;;;;;5052284;28;20693;-78
2022/02/24 09:42:56;;;;;;;4.72;1.90;;;9.60;99.90;;;;;;5053422;28;20533;-79
2022/02/24 09:45:22;;;;;;;5.05;1.73;;;9.60;99.90;;;;;;5050974;28;20034;-79
2022/02/24 09:47:50;;;;;;;4.85;1.70;;;9.60;99.90;;;;;;5051667;28;20040;-79
2022/02/24 09:50:16;;;;;;;5.35;1.90;;;9.70;99.90;;;;;;5042880;28;20037;-74
2022/02/24 09:52:42;;;;;;;5.97;1.60;;;9.80;99.90;;;;;;5046901;28;20576;-75
2022/02/24 09:55:10;;;;;;;6.28;1.95;;;9.90;99.90;;;;;;5041940;28;20033;-74
2022/02/24 09:57:36;;;;;;;7.65;1.85;;;10.00;99.90;;;;;;5051927;28;20504;-77
2022/02/24 10:00:03;;;;;;;5.00;2.20;;;10.20;99.90;;;;;;5049525;28;20028;-73
2022/02/24 10:02:29;;;;;;;5.07;1.98;;;10.20;99.90;;;;;;5048636;28;20782;-73
2022/02/24 10:05:05;;;;;;;5.25;2.13;;;10.30;99.90;;;;;;5047288;28;20037;-73
2022/02/24 10:07:35;;;;;;;7.68;2.50;;;10.50;99.90;;;;;;5047756;28;20037;-73
2022/02/24 10:10:31;;;;;;;5.53;2.30;;;10.60;99.90;;;;;;5046751;28;20594;-74
2022/02/24 10:13:01;;;;;;;;;;;10.90;99.90;;;;;;5050666;28;20033;-75
2022/02/24 10:15:26;;;;;;;4.70;2.50;;;11.10;99.90;;;;;;5048514;28;20374;-73
2022/02/24 10:18:06;;;;;;;4.68;2.10;;;11.10;99.90;;;;;;5048095;28;20108;-73
2022/02/24 10:20:41;;;;;;;4.13;1.92;;;11.20;99.90;;;;;;5046525;28;20560;-74
2022/02/24 10:23:09;;;;;;;6.85;2.72;;;11.40;99.90;;;;;;5048615;28;20037;-74
2022/02/24 10:25:42;;;;;;;5.43;2.50;;;11.60;99.90;;;;;;5049730;28;20029;-74
2022/02/24 10:28:26;;;;;;;4.07;2.20;;;11.60;99.90;;;;;;5048327;28;20033;-74
2022/02/24 10:30:51;;;;;;;7.20;2.03;;;11.90;99.90;;;;;;5050179;28;20041;-78
2022/02/24 10:33:25;;;;;;;3.92;2.45;;;11.90;99.90;;;;;;5050703;28;20029;-78
2022/02/24 10:35:50;;;;;;;3.92;2.00;;;11.90;99.90;;;;;;5050650;28;20048;-73
2022/02/24 10:38:16;;;;;;;5.05;1.98;;;12.00;99.90;;;;;;5048828;28;20079;-84
2022/02/24 10:40:45;;;;;;;9.43;1.60;;;12.10;99.90;;;;;;5048549;28;20039;-84
2022/02/24 10:43:39;;;;;;;9.63;1.60;;;12.10;99.90;;;;;;5048325;28;20040;-84
2022/02/24 10:46:08;;;;;;;4.50;1.63;;;12.20;99.90;;;;;;5039895;28;20085;-84
2022/02/24 10:48:50;;;;;;;8.27;1.50;;;12.50;99.90;;;;;;5044345;28;20501;-84
2022/02/24 10:51:31;;;;;;;2.55;1.38;;;12.80;99.90;;;;;;5047548;28;20111;-83
2022/02/24 10:54:05;;;;;;;5.10;1.60;;;13.10;99.90;;;;;;5047419;28;20060;-78
2022/02/24 10:56:33;;;;;;;2.97;1.30;;;13.10;99.90;;;;;;5049834;28;20361;-74
2022/02/24 10:58:59;;;;;;;4.00;1.58;;;13.30;99.90;;;;;;5047970;28;20029;-74
2022/02/24 11:01:26;;;;;;;3.58;1.45;;;13.60;99.90;;;;;;5049369;28;20385;-74
2022/02/24 11:04:00;;;;;;;7.25;2.60;;;13.70;99.90;;;;;;5048022;28;20047;-74
2022/02/24 11:06:28;;;;;;;3.85;1.50;;;13.70;99.90;;;;;;5049492;28;20061;-84
2022/02/24 11:08:56;;;;;;;7.38;2.17;;;13.60;99.90;;;;;;5058042;28;20025;-77
2022/02/24 11:11:25;;;;;;;5.47;1.90;;;13.60;99.90;;;;;;5057083;28;20032;-79
2022/02/24 11:13:52;;;;;;;3.47;1.42;;;13.60;99.90;;;;;;5058367;28;20096;-77
2022/02/24 11:16:18;;;;;;;7.05;1.90;;;13.90;99.90;;;;;;5067204;28;20532;-77
2022/02/24 11:18:45;;;;;;;2.88;1.48;;;13.90;99.90;;;;;;5070501;28;20100;-77
2022/02/24 11:21:12;;;;;;;2.50;1.17;;;13.80;99.90;;;;;;5053949;28;20025;-75
2022/02/24 11:23:40;;;;;;;3.20;1.55;;;13.80;99.90;;;;;;5067074;28;20021;-81
2022/02/24 11:26:33;;;;;;;3.67;1.50;;;13.80;99.90;;;;;;5075205;28;20040;-81
2022/02/24 11:29:08;;;;;;;2.97;1.20;;;14.00;99.90;;;;;;5070417;28;20096;-81
2022/02/24 11:31:42;;;;;;;2.88;1.70;;;14.10;99.90;;;;;;5072645;28;20036;-80
2022/02/24 11:34:08;;;;;;;4.35;1.50;;;14.10;99.90;;;;;;5062063;28;20029;-77
2022/02/24 11:36:42;;;;;;;4.03;1.60;;;14.20;99.90;;;;;;5050978;28;20021;-76
2022/02/24 11:39:10;;;;;;;5.63;2.17;;;14.40;99.90;;;;;;5049664;28;20017;-76
2022/02/24 11:41:52;;;;;;;8.98;1.70;;;14.30;99.90;;;;;;5045319;28;20018;-76
2022/02/24 11:44:37;;;;;;;3.85;1.50;;;14.30;99.90;;;;;;5043516;28;20025;-75
2022/02/24 11:47:06;;;;;;;8.20;1.70;;;14.50;99.90;;;;;;5051730;28;20071;-75
2022/02/24 11:49:53;;;;;;;3.83;1.60;;;14.50;99.90;;;;;;5053391;28;20389;-76
2022/02/24 11:52:23;;;;;;;3.85;1.40;;;14.40;99.90;;;;;;5051089;28;20064;-81
2022/02/24 11:54:51;;;;;;;3.92;1.50;;;14.50;99.60;;;;;;5062500;28;20056;-81
2022/02/24 11:57:35;;;;;;;7.13;1.50;;;14.40;99.60;;;;;;5052757;28;20444;-77
2022/02/24 12:00:11;;;;;;;5.07;1.30;;;14.50;99.90;;;;;;5051330;28;20108;-77
2022/02/24 12:02:45;;;;;;;6.05;1.70;;;14.70;97.60;;;;;;5055283;28;20112;-81
2022/02/24 12:05:22;;;;;;;3.92;1.40;;;15.00;97.60;;;;;;5053432;28;20086;-76
2022/02/24 12:08:10;;;;;;;3.85;1.67;;;14.80;97.00;;;;;;5053421;28;20067;-77
2022/02/24 12:10:46;;;;;;;4.20;1.42;;;14.70;96.50;;;;;;5053710;28;20036;-77
2022/02/24 12:13:27;;;;;;;2.85;1.30;;;14.70;97.30;;;;;;5055841;28;20013;-78
2022/02/24 12:16:11;;;;;;;2.42;1.33;;;14.50;97.60;;;;;;5051602;28;20029;-77
2022/02/24 12:18:37;;;;;;;4.47;1.20;;;14.60;96.50;;;;;;5048572;28;20054;-78
2022/02/24 12:21:32;;;;;;;2.65;1.33;;;14.80;96.50;;;;;;5053165;28;20390;-75
2022/02/24 12:24:01;;;;;;;3.50;1.60;;;14.80;96.40;;;;;;5052839;28;20021;-76
2022/02/24 12:26:42;;;;;;;2.45;1.45;;;14.80;95.80;;;;;;5052024;28;20350;-76
2022/02/24 12:29:45;;;;;;;3.33;1.60;;;14.90;94.40;;;;;;5033377;28;20108;-75
2022/02/24 12:32:11;;;;;;;4.93;1.30;;;14.90;94.70;;;;;;5011541;28;20112;-77
2022/02/24 12:34:37;;;;;;;4.80;1.27;;;14.90;94.20;;;;;;5028912;28;20041;-76
2022/02/24 12:37:09;;;;;;;2.70;1.30;;;14.90;94.20;;;;;;5033108;28;20052;-76
2022/02/24 12:39:37;;;;;;;2.90;1.33;;;15.00;94.50;;;;;;5033209;28;20040;-77
2022/02/24 12:42:09;;;;;;;2.92;1.40;;;14.90;94.40;;;;;;5047280;28;20025;-76
2022/02/24 12:44:35;;;;;;;3.75;1.33;;;15.10;94.00;;;;;;5053290;28;20029;-76
2022/02/24 12:47:02;;;;;;;4.75;1.63;;;15.10;94.00;;;;;;5051448;28;20048;-76
2022/02/24 12:49:43;;;;;;;5.85;1.67;;;15.10;95.20;;;;;;5051679;28;20060;-76
2022/02/24 12:52:09;;;;;;;4.13;1.30;;;15.10;94.60;;;;;;5050476;28;20036;-76